sensor_id;sensor_type;location;lat;lon;timestamp;temperature;humidity
65374;SHT31;52070;53.760;9.678;2023-07-29T00:01:19;16.59;91.87
65374;SHT31;52070;53.760;9.678;2023-07-29T00:03:46;16.57;91.93
65374;SHT31;52070;53.760;9.678;2023-07-29T00:06:14;16.52;91.85
65374;SHT31;52070;53.760;9.678;2023-07-29T00:08:41;16.52;91.79
65374;SHT31;52070;53.760;9.678;2023-07-29T00:11:08;16.48;91.91
65374;SHT31;52070;53.760;9.678;2023-07-29T00:13:35;16.46;91.76
65374;SHT31;52070;53.760;9.678;2023-07-29T00:16:02;16.45;91.74
65374;SHT31;52070;53.760;9.678;2023-07-29T00:18:29;16.45;91.85
65374;SHT31;52070;53.760;9.678;2023-07-29T00:20:56;16.45;91.95
65374;SHT31;52070;53.760;9.678;2023-07-29T00:23:25;16.42;92.16
65374;SHT31;52070;53.760;9.678;2023-07-29T00:25:52;16.45;92.27
65374;SHT31;52070;53.760;9.678;2023-07-29T00:28:19;16.46;92.28
65374;SHT31;52070;53.760;9.678;2023-07-29T00:30:46;16.46;92.38
65374;SHT31;52070;53.760;9.678;2023-07-29T00:33:13;16.49;92.41
65374;SHT31;52070;53.760;9.678;2023-07-29T00:35:40;16.53;92.41
65374;SHT31;52070;53.760;9.678;2023-07-29T00:38:07;16.56;92.41
65374;SHT31;52070;53.760;9.678;2023-07-29T00:40:36;16.59;92.40
65374;SHT31;52070;53.760;9.678;2023-07-29T00:43:03;16.62;92.43
65374;SHT31;52070;53.760;9.678;2023-07-29T00:45:31;16.65;92.46
65374;SHT31;52070;53.760;9.678;2023-07-29T00:47:59;16.66;92.48
65374;SHT31;52070;53.760;9.678;2023-07-29T00:50:27;16.65;92.49
65374;SHT31;52070;53.760;9.678;2023-07-29T00:52:54;16.65;92.52
65374;SHT31;52070;53.760;9.678;2023-07-29T00:55:21;16.65;92.51
65374;SHT31;52070;53.760;9.678;2023-07-29T00:57:50;16.67;92.56
65374;SHT31;52070;53.760;9.678;2023-07-29T01:00:20;16.70;92.58
65374;SHT31;52070;53.760;9.678;2023-07-29T01:02:47;16.69;92.52
65374;SHT31;52070;53.760;9.678;2023-07-29T01:05:16;16.73;92.46
65374;SHT31;52070;53.760;9.678;2023-07-29T01:07:47;16.73;92.45
65374;SHT31;52070;53.760;9.678;2023-07-29T01:10:21;16.76;92.39
65374;SHT31;52070;53.760;9.678;2023-07-29T01:12:56;16.76;92.40
65374;SHT31;52070;53.760;9.678;2023-07-29T01:15:28;16.81;92.34
65374;SHT31;52070;53.760;9.678;2023-07-29T01:18:01;16.81;92.20
65374;SHT31;52070;53.760;9.678;2023-07-29T01:20:32;16.81;92.18
65374;SHT31;52070;53.760;9.678;2023-07-29T01:23:00;16.80;92.40
65374;SHT31;52070;53.760;9.678;2023-07-29T01:25:28;16.79;92.66
65374;SHT31;52070;53.760;9.678;2023-07-29T01:27:55;16.83;92.68
65374;SHT31;52070;53.760;9.678;2023-07-29T01:30:30;16.84;92.62
65374;SHT31;52070;53.760;9.678;2023-07-29T01:33:05;16.86;92.57
65374;SHT31;52070;53.760;9.678;2023-07-29T01:35:40;16.89;92.55
65374;SHT31;52070;53.760;9.678;2023-07-29T01:38:13;16.91;92.55
65374;SHT31;52070;53.760;9.678;2023-07-29T01:40:42;16.90;92.61
65374;SHT31;52070;53.760;9.678;2023-07-29T01:43:10;16.91;92.69
65374;SHT31;52070;53.760;9.678;2023-07-29T01:45:38;16.94;92.63
65374;SHT31;52070;53.760;9.678;2023-07-29T01:48:06;17.02;92.58
65374;SHT31;52070;53.760;9.678;2023-07-29T01:50:33;17.03;92.54
65374;SHT31;52070;53.760;9.678;2023-07-29T01:53:00;17.07;92.60
65374;SHT31;52070;53.760;9.678;2023-07-29T01:55:27;17.09;92.63
65374;SHT31;52070;53.760;9.678;2023-07-29T01:57:55;17.13;92.73
65374;SHT31;52070;53.760;9.678;2023-07-29T02:00:22;17.20;92.78
65374;SHT31;52070;53.760;9.678;2023-07-29T02:02:49;17.13;92.74
65374;SHT31;52070;53.760;9.678;2023-07-29T02:05:16;17.09;92.75
65374;SHT31;52070;53.760;9.678;2023-07-29T02:07:43;17.07;92.89
65374;SHT31;52070;53.760;9.678;2023-07-29T02:10:10;17.04;93.11
65374;SHT31;52070;53.760;9.678;2023-07-29T02:12:37;17.09;93.27
65374;SHT31;52070;53.760;9.678;2023-07-29T02:15:06;17.09;93.29
65374;SHT31;52070;53.760;9.678;2023-07-29T02:17:33;17.13;93.29
65374;SHT31;52070;53.760;9.678;2023-07-29T02:20:00;17.10;93.28
65374;SHT31;52070;53.760;9.678;2023-07-29T02:22:29;17.07;93.21
65374;SHT31;52070;53.760;9.678;2023-07-29T02:24:56;17.07;93.18
65374;SHT31;52070;53.760;9.678;2023-07-29T02:27:23;17.04;93.20
65374;SHT31;52070;53.760;9.678;2023-07-29T02:29:51;16.99;93.23
65374;SHT31;52070;53.760;9.678;2023-07-29T02:32:20;17.00;93.24
65374;SHT31;52070;53.760;9.678;2023-07-29T02:34:48;17.00;93.30
65374;SHT31;52070;53.760;9.678;2023-07-29T02:37:15;17.00;93.37
65374;SHT31;52070;53.760;9.678;2023-07-29T02:39:42;17.02;93.36
65374;SHT31;52070;53.760;9.678;2023-07-29T02:42:09;17.03;93.35
65374;SHT31;52070;53.760;9.678;2023-07-29T02:44:36;17.03;93.43
65374;SHT31;52070;53.760;9.678;2023-07-29T02:47:03;17.09;93.45
65374;SHT31;52070;53.760;9.678;2023-07-29T02:49:31;17.09;93.43
65374;SHT31;52070;53.760;9.678;2023-07-29T02:51:58;17.10;93.43
65374;SHT31;52070;53.760;9.678;2023-07-29T02:54:25;17.09;93.48
65374;SHT31;52070;53.760;9.678;2023-07-29T02:56:53;17.11;93.58
65374;SHT31;52070;53.760;9.678;2023-07-29T02:59:20;17.13;93.61
65374;SHT31;52070;53.760;9.678;2023-07-29T03:01:47;17.14;93.65
65374;SHT31;52070;53.760;9.678;2023-07-29T03:04:14;17.14;93.63
65374;SHT31;52070;53.760;9.678;2023-07-29T03:06:42;17.14;93.64
65374;SHT31;52070;53.760;9.678;2023-07-29T03:09:09;17.16;93.65
65374;SHT31;52070;53.760;9.678;2023-07-29T03:11:36;17.11;93.87
65374;SHT31;52070;53.760;9.678;2023-07-29T03:14:03;17.16;94.01
65374;SHT31;52070;53.760;9.678;2023-07-29T03:16:30;17.16;93.97
65374;SHT31;52070;53.760;9.678;2023-07-29T03:18:57;17.17;93.95
65374;SHT31;52070;53.760;9.678;2023-07-29T03:21:25;17.14;94.05
65374;SHT31;52070;53.760;9.678;2023-07-29T03:23:54;17.16;94.23
65374;SHT31;52070;53.760;9.678;2023-07-29T03:26:21;17.17;94.34
65374;SHT31;52070;53.760;9.678;2023-07-29T03:28:48;17.21;94.44
65374;SHT31;52070;53.760;9.678;2023-07-29T03:31:14;17.23;94.48
65374;SHT31;52070;53.760;9.678;2023-07-29T03:33:41;17.27;94.59
65374;SHT31;52070;53.760;9.678;2023-07-29T03:36:08;17.32;94.68
65374;SHT31;52070;53.760;9.678;2023-07-29T03:38:35;17.40;94.71
65374;SHT31;52070;53.760;9.678;2023-07-29T03:41:07;17.41;94.82
65374;SHT31;52070;53.760;9.678;2023-07-29T03:43:34;17.45;94.84
65374;SHT31;52070;53.760;9.678;2023-07-29T03:46:01;17.54;94.84
65374;SHT31;52070;53.760;9.678;2023-07-29T03:48:28;17.57;94.90
65374;SHT31;52070;53.760;9.678;2023-07-29T03:50:56;17.58;94.93
65374;SHT31;52070;53.760;9.678;2023-07-29T03:53:23;17.61;95.10
65374;SHT31;52070;53.760;9.678;2023-07-29T03:55:51;17.68;95.23
65374;SHT31;52070;53.760;9.678;2023-07-29T03:58:19;17.72;95.24
65374;SHT31;52070;53.760;9.678;2023-07-29T04:00:46;17.72;95.19
65374;SHT31;52070;53.760;9.678;2023-07-29T04:03:13;17.71;95.19
65374;SHT31;52070;53.760;9.678;2023-07-29T04:05:40;17.75;95.26
65374;SHT31;52070;53.760;9.678;2023-07-29T04:08:07;17.77;95.25
65374;SHT31;52070;53.760;9.678;2023-07-29T04:10:34;17.81;95.24
65374;SHT31;52070;53.760;9.678;2023-07-29T04:13:01;17.82;95.31
65374;SHT31;52070;53.760;9.678;2023-07-29T04:15:29;17.88;95.32
65374;SHT31;52070;53.760;9.678;2023-07-29T04:17:56;17.94;95.36
65374;SHT31;52070;53.760;9.678;2023-07-29T04:20:23;17.98;95.39
65374;SHT31;52070;53.760;9.678;2023-07-29T04:22:50;18.01;95.42
65374;SHT31;52070;53.760;9.678;2023-07-29T04:25:20;18.05;95.50
65374;SHT31;52070;53.760;9.678;2023-07-29T04:27:47;18.06;95.56
65374;SHT31;52070;53.760;9.678;2023-07-29T04:30:14;18.05;95.59
65374;SHT31;52070;53.760;9.678;2023-07-29T04:32:42;18.10;95.66
65374;SHT31;52070;53.760;9.678;2023-07-29T04:35:10;18.15;95.64
65374;SHT31;52070;53.760;9.678;2023-07-29T04:37:37;18.15;95.71
65374;SHT31;52070;53.760;9.678;2023-07-29T04:40:05;18.16;95.71
65374;SHT31;52070;53.760;9.678;2023-07-29T04:42:32;18.19;95.72
65374;SHT31;52070;53.760;9.678;2023-07-29T04:44:59;18.15;95.75
65374;SHT31;52070;53.760;9.678;2023-07-29T04:47:26;18.16;95.73
65374;SHT31;52070;53.760;9.678;2023-07-29T04:49:55;18.21;95.77
65374;SHT31;52070;53.760;9.678;2023-07-29T04:52:22;18.17;95.67
65374;SHT31;52070;53.760;9.678;2023-07-29T04:54:48;18.22;95.61
65374;SHT31;52070;53.760;9.678;2023-07-29T04:57:15;18.23;95.52
65374;SHT31;52070;53.760;9.678;2023-07-29T04:59:42;18.21;95.48
65374;SHT31;52070;53.760;9.678;2023-07-29T05:02:09;18.23;95.41
65374;SHT31;52070;53.760;9.678;2023-07-29T05:04:37;18.26;95.34
65374;SHT31;52070;53.760;9.678;2023-07-29T05:07:05;18.26;95.28
65374;SHT31;52070;53.760;9.678;2023-07-29T05:09:32;18.28;95.19
65374;SHT31;52070;53.760;9.678;2023-07-29T05:11:59;18.32;95.11
65374;SHT31;52070;53.760;9.678;2023-07-29T05:14:26;18.36;94.97
65374;SHT31;52070;53.760;9.678;2023-07-29T05:16:53;18.39;94.91
65374;SHT31;52070;53.760;9.678;2023-07-29T05:19:20;18.46;94.87
65374;SHT31;52070;53.760;9.678;2023-07-29T05:21:48;18.56;94.79
65374;SHT31;52070;53.760;9.678;2023-07-29T05:24:16;18.49;94.60
65374;SHT31;52070;53.760;9.678;2023-07-29T05:26:43;18.56;94.54
65374;SHT31;52070;53.760;9.678;2023-07-29T05:29:10;18.52;94.46
65374;SHT31;52070;53.760;9.678;2023-07-29T05:31:37;18.55;94.38
65374;SHT31;52070;53.760;9.678;2023-07-29T05:34:04;18.61;94.38
65374;SHT31;52070;53.760;9.678;2023-07-29T05:36:31;18.66;94.34
65374;SHT31;52070;53.760;9.678;2023-07-29T05:38:58;18.67;94.26
65374;SHT31;52070;53.760;9.678;2023-07-29T05:41:26;18.60;94.06
65374;SHT31;52070;53.760;9.678;2023-07-29T05:43:54;18.64;93.90
65374;SHT31;52070;53.760;9.678;2023-07-29T05:46:21;18.66;93.79
65374;SHT31;52070;53.760;9.678;2023-07-29T05:48:48;18.61;93.53
65374;SHT31;52070;53.760;9.678;2023-07-29T05:51:15;18.53;93.43
65374;SHT31;52070;53.760;9.678;2023-07-29T05:53:42;18.52;93.40
65374;SHT31;52070;53.760;9.678;2023-07-29T05:56:09;18.55;93.36
65374;SHT31;52070;53.760;9.678;2023-07-29T05:58:38;18.52;93.46
65374;SHT31;52070;53.760;9.678;2023-07-29T06:01:05;18.53;93.59
65374;SHT31;52070;53.760;9.678;2023-07-29T06:03:32;18.53;93.64
65374;SHT31;52070;53.760;9.678;2023-07-29T06:05:59;18.57;93.62
65374;SHT31;52070;53.760;9.678;2023-07-29T06:08:26;18.59;93.50
65374;SHT31;52070;53.760;9.678;2023-07-29T06:10:54;18.60;93.44
65374;SHT31;52070;53.760;9.678;2023-07-29T06:13:21;18.60;93.42
65374;SHT31;52070;53.760;9.678;2023-07-29T06:15:49;18.64;93.38
65374;SHT31;52070;53.760;9.678;2023-07-29T06:18:16;18.71;93.34
65374;SHT31;52070;53.760;9.678;2023-07-29T06:20:43;18.80;93.39
65374;SHT31;52070;53.760;9.678;2023-07-29T06:23:10;18.83;93.15
65374;SHT31;52070;53.760;9.678;2023-07-29T06:25:37;18.93;93.14
65374;SHT31;52070;53.760;9.678;2023-07-29T06:28:04;19.01;93.15
65374;SHT31;52070;53.760;9.678;2023-07-29T06:30:31;19.06;92.61
65374;SHT31;52070;53.760;9.678;2023-07-29T06:32:59;19.14;92.67
65374;SHT31;52070;53.760;9.678;2023-07-29T06:35:26;19.22;92.55
65374;SHT31;52070;53.760;9.678;2023-07-29T06:37:53;19.17;92.08
65374;SHT31;52070;53.760;9.678;2023-07-29T06:40:20;19.22;91.97
65374;SHT31;52070;53.760;9.678;2023-07-29T06:42:47;19.21;91.92
65374;SHT31;52070;53.760;9.678;2023-07-29T06:45:14;19.14;91.37
65374;SHT31;52070;53.760;9.678;2023-07-29T06:47:42;19.20;91.50
65374;SHT31;52070;53.760;9.678;2023-07-29T06:50:10;19.30;91.36
65374;SHT31;52070;53.760;9.678;2023-07-29T06:52:37;19.36;91.05
65374;SHT31;52070;53.760;9.678;2023-07-29T06:55:06;19.52;90.90
65374;SHT31;52070;53.760;9.678;2023-07-29T06:57:33;19.57;90.65
65374;SHT31;52070;53.760;9.678;2023-07-29T07:00:01;19.57;89.82
65374;SHT31;52070;53.760;9.678;2023-07-29T07:02:28;19.62;89.88
65374;SHT31;52070;53.760;9.678;2023-07-29T07:04:55;19.66;90.04
65374;SHT31;52070;53.760;9.678;2023-07-29T07:07:23;19.71;89.61
65374;SHT31;52070;53.760;9.678;2023-07-29T07:09:50;19.71;88.93
65374;SHT31;52070;53.760;9.678;2023-07-29T07:12:17;19.72;88.90
65374;SHT31;52070;53.760;9.678;2023-07-29T07:14:44;19.76;88.98
65374;SHT31;52070;53.760;9.678;2023-07-29T07:17:11;19.81;88.77
65374;SHT31;52070;53.760;9.678;2023-07-29T07:19:38;19.81;88.95
65374;SHT31;52070;53.760;9.678;2023-07-29T07:22:05;19.78;89.01
65374;SHT31;52070;53.760;9.678;2023-07-29T07:24:33;19.78;89.13
65374;SHT31;52070;53.760;9.678;2023-07-29T07:27:00;19.75;89.04
65374;SHT31;52070;53.760;9.678;2023-07-29T07:29:27;19.66;88.75
65374;SHT31;52070;53.760;9.678;2023-07-29T07:31:56;19.68;88.98
65374;SHT31;52070;53.760;9.678;2023-07-29T07:34:23;19.75;89.23
65374;SHT31;52070;53.760;9.678;2023-07-29T07:36:50;19.82;89.34
65374;SHT31;52070;53.760;9.678;2023-07-29T07:39:17;19.86;89.08
65374;SHT31;52070;53.760;9.678;2023-07-29T07:41:46;19.86;88.77
65374;SHT31;52070;53.760;9.678;2023-07-29T07:44:13;19.90;88.40
65374;SHT31;52070;53.760;9.678;2023-07-29T07:46:43;19.90;88.46
65374;SHT31;52070;53.760;9.678;2023-07-29T07:49:10;19.93;88.28
65374;SHT31;52070;53.760;9.678;2023-07-29T07:51:38;19.99;88.26
65374;SHT31;52070;53.760;9.678;2023-07-29T07:54:05;20.03;88.12
65374;SHT31;52070;53.760;9.678;2023-07-29T07:56:32;20.09;88.21
65374;SHT31;52070;53.760;9.678;2023-07-29T07:59:00;20.10;87.96
65374;SHT31;52070;53.760;9.678;2023-07-29T08:01:27;20.13;87.64
65374;SHT31;52070;53.760;9.678;2023-07-29T08:03:54;20.27;88.00
65374;SHT31;52070;53.760;9.678;2023-07-29T08:06:26;20.33;87.40
65374;SHT31;52070;53.760;9.678;2023-07-29T08:08:52;20.19;86.72
65374;SHT31;52070;53.760;9.678;2023-07-29T08:11:20;20.24;87.41
65374;SHT31;52070;53.760;9.678;2023-07-29T08:13:48;20.44;87.28
65374;SHT31;52070;53.760;9.678;2023-07-29T08:16:16;20.43;86.57
65374;SHT31;52070;53.760;9.678;2023-07-29T08:18:43;20.53;86.78
65374;SHT31;52070;53.760;9.678;2023-07-29T08:21:10;20.60;86.39
65374;SHT31;52070;53.760;9.678;2023-07-29T08:23:37;20.70;86.43
65374;SHT31;52070;53.760;9.678;2023-07-29T08:26:05;20.61;85.83
65374;SHT31;52070;53.760;9.678;2023-07-29T08:28:34;20.46;85.98
65374;SHT31;52070;53.760;9.678;2023-07-29T08:31:21;20.32;86.52
65374;SHT31;52070;53.760;9.678;2023-07-29T08:34:08;20.34;87.00
65374;SHT31;52070;53.760;9.678;2023-07-29T08:36:55;20.39;87.19
65374;SHT31;52070;53.760;9.678;2023-07-29T08:39:42;20.40;86.84
65374;SHT31;52070;53.760;9.678;2023-07-29T08:42:32;20.46;86.23
65374;SHT31;52070;53.760;9.678;2023-07-29T08:45:19;20.44;85.72
65374;SHT31;52070;53.760;9.678;2023-07-29T08:48:10;20.57;85.80
65374;SHT31;52070;53.760;9.678;2023-07-29T08:50:58;20.68;84.27
65374;SHT31;52070;53.760;9.678;2023-07-29T08:53:49;20.88;84.76
65374;SHT31;52070;53.760;9.678;2023-07-29T08:56:37;21.12;84.63
65374;SHT31;52070;53.760;9.678;2023-07-29T08:59:04;21.25;83.57
65374;SHT31;52070;53.760;9.678;2023-07-29T09:01:32;21.34;83.31
65374;SHT31;52070;53.760;9.678;2023-07-29T09:04:06;21.28;82.86
65374;SHT31;52070;53.760;9.678;2023-07-29T09:06:36;21.17;81.78
65374;SHT31;52070;53.760;9.678;2023-07-29T09:09:04;21.32;83.21
65374;SHT31;52070;53.760;9.678;2023-07-29T09:11:31;21.52;83.06
65374;SHT31;52070;53.760;9.678;2023-07-29T09:14:02;21.51;80.59
65374;SHT31;52070;53.760;9.678;2023-07-29T09:16:51;21.39;81.10
65374;SHT31;52070;53.760;9.678;2023-07-29T09:19:19;21.41;81.16
65374;SHT31;52070;53.760;9.678;2023-07-29T09:21:47;21.42;80.63
65374;SHT31;52070;53.760;9.678;2023-07-29T09:24:16;21.34;79.53
65374;SHT31;52070;53.760;9.678;2023-07-29T09:26:49;21.25;79.31
65374;SHT31;52070;53.760;9.678;2023-07-29T09:29:22;21.24;79.15
65374;SHT31;52070;53.760;9.678;2023-07-29T09:31:49;21.25;79.75
65374;SHT31;52070;53.760;9.678;2023-07-29T09:34:16;21.24;79.17
65374;SHT31;52070;53.760;9.678;2023-07-29T09:36:45;21.37;79.57
65374;SHT31;52070;53.760;9.678;2023-07-29T09:39:12;21.45;79.26
65374;SHT31;52070;53.760;9.678;2023-07-29T09:41:39;21.51;78.50
65374;SHT31;52070;53.760;9.678;2023-07-29T09:44:07;21.75;78.74
65374;SHT31;52070;53.760;9.678;2023-07-29T09:46:36;22.10;77.79
65374;SHT31;52070;53.760;9.678;2023-07-29T09:49:04;22.53;75.00
65374;SHT31;52070;53.760;9.678;2023-07-29T09:51:31;22.37;73.87
65374;SHT31;52070;53.760;9.678;2023-07-29T09:54:02;22.21;74.58
65374;SHT31;52070;53.760;9.678;2023-07-29T09:56:29;22.12;73.40
65374;SHT31;52070;53.760;9.678;2023-07-29T09:58:56;22.12;72.89
65374;SHT31;52070;53.760;9.678;2023-07-29T10:01:23;21.93;72.45
65374;SHT31;52070;53.760;9.678;2023-07-29T10:03:50;21.86;72.94
65374;SHT31;52070;53.760;9.678;2023-07-29T10:06:18;22.09;74.03
65374;SHT31;52070;53.760;9.678;2023-07-29T10:08:46;22.12;72.40
65374;SHT31;52070;53.760;9.678;2023-07-29T10:11:16;22.20;72.51
65374;SHT31;52070;53.760;9.678;2023-07-29T10:13:45;22.44;72.74
65374;SHT31;52070;53.760;9.678;2023-07-29T10:16:13;22.68;71.03
65374;SHT31;52070;53.760;9.678;2023-07-29T10:18:42;23.20;70.08
65374;SHT31;52070;53.760;9.678;2023-07-29T10:21:11;23.23;68.51
65374;SHT31;52070;53.760;9.678;2023-07-29T10:23:42;23.14;68.84
65374;SHT31;52070;53.760;9.678;2023-07-29T10:26:11;22.91;69.52
65374;SHT31;52070;53.760;9.678;2023-07-29T10:28:41;22.58;68.77
65374;SHT31;52070;53.760;9.678;2023-07-29T10:31:10;22.47;70.57
65374;SHT31;52070;53.760;9.678;2023-07-29T10:33:38;22.23;69.76
65374;SHT31;52070;53.760;9.678;2023-07-29T10:36:05;21.89;70.62
65374;SHT31;52070;53.760;9.678;2023-07-29T10:38:32;21.75;71.43
65374;SHT31;52070;53.760;9.678;2023-07-29T10:40:59;21.65;71.83
65374;SHT31;52070;53.760;9.678;2023-07-29T10:43:31;21.62;72.97
65374;SHT31;52070;53.760;9.678;2023-07-29T10:46:15;21.53;72.29
65374;SHT31;52070;53.760;9.678;2023-07-29T10:48:44;21.48;72.14
65374;SHT31;52070;53.760;9.678;2023-07-29T10:51:29;21.52;70.75
65374;SHT31;52070;53.760;9.678;2023-07-29T10:53:57;21.63;70.82
65374;SHT31;52070;53.760;9.678;2023-07-29T10:56:26;21.78;70.83
65374;SHT31;52070;53.760;9.678;2023-07-29T10:58:55;22.13;69.75
65374;SHT31;52070;53.760;9.678;2023-07-29T11:01:28;22.14;68.61
65374;SHT31;52070;53.760;9.678;2023-07-29T11:04:25;22.14;68.41
65374;SHT31;52070;53.760;9.678;2023-07-29T11:09:53;22.24;70.05
65374;SHT31;52070;53.760;9.678;2023-07-29T11:12:41;22.41;70.26
65374;SHT31;52070;53.760;9.678;2023-07-29T11:15:14;22.47;69.58
65374;SHT31;52070;53.760;9.678;2023-07-29T11:17:48;22.92;68.29
65374;SHT31;52070;53.760;9.678;2023-07-29T11:20:23;23.52;66.56
65374;SHT31;52070;53.760;9.678;2023-07-29T11:22:52;23.49;68.12
65374;SHT31;52070;53.760;9.678;2023-07-29T11:25:24;22.92;66.94
65374;SHT31;52070;53.760;9.678;2023-07-29T11:27:58;23.26;67.16
65374;SHT31;52070;53.760;9.678;2023-07-29T11:30:36;23.84;65.75
65374;SHT31;52070;53.760;9.678;2023-07-29T11:39:00;23.63;67.07
65374;SHT31;52070;53.760;9.678;2023-07-29T11:41:43;23.86;66.13
65374;SHT31;52070;53.760;9.678;2023-07-29T11:44:17;23.69;64.46
65374;SHT31;52070;53.760;9.678;2023-07-29T11:46:44;23.56;63.94
65374;SHT31;52070;53.760;9.678;2023-07-29T11:49:14;23.89;66.41
65374;SHT31;52070;53.760;9.678;2023-07-29T11:51:42;23.89;64.72
65374;SHT31;52070;53.760;9.678;2023-07-29T11:54:12;24.21;64.95
65374;SHT31;52070;53.760;9.678;2023-07-29T11:56:40;24.18;62.44
65374;SHT31;52070;53.760;9.678;2023-07-29T11:59:08;24.13;63.33
65374;SHT31;52070;53.760;9.678;2023-07-29T12:01:35;23.80;65.09
65374;SHT31;52070;53.760;9.678;2023-07-29T12:04:05;23.76;64.32
65374;SHT31;52070;53.760;9.678;2023-07-29T12:06:37;24.11;65.68
65374;SHT31;52070;53.760;9.678;2023-07-29T12:09:18;23.94;62.34
65374;SHT31;52070;53.760;9.678;2023-07-29T12:11:49;23.63;62.47
65374;SHT31;52070;53.760;9.678;2023-07-29T12:14:20;23.60;64.45
65374;SHT31;52070;53.760;9.678;2023-07-29T12:16:48;23.67;65.78
65374;SHT31;52070;53.760;9.678;2023-07-29T12:19:21;24.14;63.09
65374;SHT31;52070;53.760;9.678;2023-07-29T12:21:51;24.48;63.23
65374;SHT31;52070;53.760;9.678;2023-07-29T12:24:22;24.91;62.67
65374;SHT31;52070;53.760;9.678;2023-07-29T12:26:53;24.82;60.00
65374;SHT31;52070;53.760;9.678;2023-07-29T12:29:21;24.75;62.27
65374;SHT31;52070;53.760;9.678;2023-07-29T12:31:57;24.95;61.16
65374;SHT31;52070;53.760;9.678;2023-07-29T12:34:31;24.96;59.75
65374;SHT31;52070;53.760;9.678;2023-07-29T12:37:03;24.50;60.92
65374;SHT31;52070;53.760;9.678;2023-07-29T12:39:40;24.28;61.05
65374;SHT31;52070;53.760;9.678;2023-07-29T12:42:08;23.86;62.17
65374;SHT31;52070;53.760;9.678;2023-07-29T12:44:36;23.77;63.87
65374;SHT31;52070;53.760;9.678;2023-07-29T12:47:06;23.53;64.35
65374;SHT31;52070;53.760;9.678;2023-07-29T12:49:34;23.48;64.19
65374;SHT31;52070;53.760;9.678;2023-07-29T12:52:02;23.69;64.92
65374;SHT31;52070;53.760;9.678;2023-07-29T12:54:32;23.62;62.65
65374;SHT31;52070;53.760;9.678;2023-07-29T12:57:02;24.17;61.71
65374;SHT31;52070;53.760;9.678;2023-07-29T12:59:29;23.94;61.15
65374;SHT31;52070;53.760;9.678;2023-07-29T13:02:09;24.03;61.91
65374;SHT31;52070;53.760;9.678;2023-07-29T13:04:36;24.40;61.31
65374;SHT31;52070;53.760;9.678;2023-07-29T13:07:28;25.11;59.88
65374;SHT31;52070;53.760;9.678;2023-07-29T13:09:58;24.91;57.94
65374;SHT31;52070;53.760;9.678;2023-07-29T13:12:34;25.15;56.32
65374;SHT31;52070;53.760;9.678;2023-07-29T13:15:03;25.23;56.47
65374;SHT31;52070;53.760;9.678;2023-07-29T13:17:30;24.72;55.13
65374;SHT31;52070;53.760;9.678;2023-07-29T13:19:58;24.64;56.68
65374;SHT31;52070;53.760;9.678;2023-07-29T13:22:28;24.75;55.20
65374;SHT31;52070;53.760;9.678;2023-07-29T13:25:13;24.57;55.96
65374;SHT31;52070;53.760;9.678;2023-07-29T13:27:42;24.72;56.02
65374;SHT31;52070;53.760;9.678;2023-07-29T13:30:10;24.72;56.09
65374;SHT31;52070;53.760;9.678;2023-07-29T13:32:47;24.23;57.10
65374;SHT31;52070;53.760;9.678;2023-07-29T13:35:21;24.17;59.90
65374;SHT31;52070;53.760;9.678;2023-07-29T13:37:48;24.67;58.16
65374;SHT31;52070;53.760;9.678;2023-07-29T13:40:16;24.84;59.31
65374;SHT31;52070;53.760;9.678;2023-07-29T13:42:45;24.86;58.96
65374;SHT31;52070;53.760;9.678;2023-07-29T13:45:16;24.65;58.11
65374;SHT31;52070;53.760;9.678;2023-07-29T13:47:44;24.43;59.57
65374;SHT31;52070;53.760;9.678;2023-07-29T13:50:16;24.88;58.44
65374;SHT31;52070;53.760;9.678;2023-07-29T13:52:50;24.69;60.62
65374;SHT31;52070;53.760;9.678;2023-07-29T13:55:23;24.30;58.41
65374;SHT31;52070;53.760;9.678;2023-07-29T13:57:56;24.20;59.07
65374;SHT31;52070;53.760;9.678;2023-07-29T14:00:23;24.14;59.39
65374;SHT31;52070;53.760;9.678;2023-07-29T14:02:57;23.72;60.48
65374;SHT31;52070;53.760;9.678;2023-07-29T14:05:33;23.52;61.77
65374;SHT31;52070;53.760;9.678;2023-07-29T14:08:04;23.50;62.66
65374;SHT31;52070;53.760;9.678;2023-07-29T14:10:31;24.06;62.71
65374;SHT31;52070;53.760;9.678;2023-07-29T14:13:06;24.63;59.85
65374;SHT31;52070;53.760;9.678;2023-07-29T14:15:34;24.98;60.94
65374;SHT31;52070;53.760;9.678;2023-07-29T14:18:02;25.36;55.11
65374;SHT31;52070;53.760;9.678;2023-07-29T14:20:33;25.40;56.81
65374;SHT31;52070;53.760;9.678;2023-07-29T14:23:01;25.83;56.54
65374;SHT31;52070;53.760;9.678;2023-07-29T14:25:32;25.69;54.88
65374;SHT31;52070;53.760;9.678;2023-07-29T14:27:59;25.15;57.80
65374;SHT31;52070;53.760;9.678;2023-07-29T14:30:34;25.73;56.15
65374;SHT31;52070;53.760;9.678;2023-07-29T14:33:03;26.11;56.93
65374;SHT31;52070;53.760;9.678;2023-07-29T14:35:35;25.93;54.16
65374;SHT31;52070;53.760;9.678;2023-07-29T14:38:02;25.84;54.82
65374;SHT31;52070;53.760;9.678;2023-07-29T14:40:30;25.76;53.71
65374;SHT31;52070;53.760;9.678;2023-07-29T14:42:58;25.32;55.03
65374;SHT31;52070;53.760;9.678;2023-07-29T14:45:25;24.85;56.74
65374;SHT31;52070;53.760;9.678;2023-07-29T14:47:55;24.47;58.07
65374;SHT31;52070;53.760;9.678;2023-07-29T14:50:23;24.21;58.51
65374;SHT31;52070;53.760;9.678;2023-07-29T14:52:51;24.48;57.75
65374;SHT31;52070;53.760;9.678;2023-07-29T14:55:19;24.43;57.54
65374;SHT31;52070;53.760;9.678;2023-07-29T14:57:47;24.34;58.82
65374;SHT31;52070;53.760;9.678;2023-07-29T15:00:17;24.35;59.48
65374;SHT31;52070;53.760;9.678;2023-07-29T15:02:51;24.27;59.09
65374;SHT31;52070;53.760;9.678;2023-07-29T15:05:20;24.63;58.34
65374;SHT31;52070;53.760;9.678;2023-07-29T15:07:48;24.23;57.95
65374;SHT31;52070;53.760;9.678;2023-07-29T15:10:35;24.28;60.78
65374;SHT31;52070;53.760;9.678;2023-07-29T15:13:03;24.82;59.30
65374;SHT31;52070;53.760;9.678;2023-07-29T15:15:40;25.26;59.84
65374;SHT31;52070;53.760;9.678;2023-07-29T15:18:14;25.04;61.38
65374;SHT31;52070;53.760;9.678;2023-07-29T15:20:43;24.53;61.65
65374;SHT31;52070;53.760;9.678;2023-07-29T15:23:17;23.69;63.28
65374;SHT31;52070;53.760;9.678;2023-07-29T15:25:44;23.42;65.05
65374;SHT31;52070;53.760;9.678;2023-07-29T15:28:12;23.23;65.77
65374;SHT31;52070;53.760;9.678;2023-07-29T15:30:40;23.09;66.79
65374;SHT31;52070;53.760;9.678;2023-07-29T15:33:08;23.05;68.20
65374;SHT31;52070;53.760;9.678;2023-07-29T15:35:43;22.92;67.59
65374;SHT31;52070;53.760;9.678;2023-07-29T15:38:10;22.72;68.62
65374;SHT31;52070;53.760;9.678;2023-07-29T15:40:38;22.55;68.47
65374;SHT31;52070;53.760;9.678;2023-07-29T15:43:15;22.33;68.01
65374;SHT31;52070;53.760;9.678;2023-07-29T15:45:43;22.25;67.32
65374;SHT31;52070;53.760;9.678;2023-07-29T15:48:12;22.13;67.76
65374;SHT31;52070;53.760;9.678;2023-07-29T15:50:49;22.02;67.37
65374;SHT31;52070;53.760;9.678;2023-07-29T15:53:18;21.96;68.42